createdAt,value
2022-08-30T00:00:59.146Z,0
2022-08-30T00:04:04.013Z,0
2022-08-30T00:06:59.414Z,0
2022-08-30T00:09:59.308Z,0
2022-08-30T00:12:59.351Z,0
2022-08-30T00:15:58.917Z,0
2022-08-30T00:18:59.025Z,0
2022-08-30T00:21:58.973Z,0
2022-08-30T00:24:59.234Z,0.3333333333333333
2022-08-30T00:27:59.129Z,0
2022-08-30T00:30:58.460Z,0
2022-08-30T00:33:58.820Z,0
2022-08-30T00:36:58.948Z,0.3333333333333333
2022-08-30T00:39:58.771Z,0
2022-08-30T00:42:59.512Z,0
2022-08-30T00:45:59.457Z,0
2022-08-30T00:48:58.938Z,0
2022-08-30T00:51:59.127Z,0
2022-08-30T00:54:58.545Z,0
2022-08-30T00:57:58.521Z,0
2022-08-30T01:00:58.732Z,0
2022-08-30T01:03:58.367Z,0.3333333333333333
2022-08-30T01:06:59.019Z,0
2022-08-30T01:09:59.286Z,0
2022-08-30T01:12:59.130Z,0
2022-08-30T01:15:58.965Z,0
2022-08-30T01:18:59.050Z,0
2022-08-30T01:21:58.185Z,0
2022-08-30T01:24:58.403Z,0
2022-08-30T01:27:58.200Z,0
2022-08-30T01:30:58.843Z,0
2022-08-30T01:33:58.997Z,0
2022-08-30T01:36:58.921Z,0
2022-08-30T01:39:58.813Z,0.3333333333333333
2022-08-30T01:42:58.859Z,0
2022-08-30T01:45:58.794Z,0
2022-08-30T01:48:58.626Z,0
2022-08-30T01:52:01.108Z,0
2022-08-30T01:54:58.703Z,0
2022-08-30T01:57:58.619Z,0
2022-08-30T02:00:59.803Z,0
2022-08-30T02:03:59.497Z,0
2022-08-30T02:06:58.651Z,0
2022-08-30T02:09:59.354Z,0
2022-08-30T02:12:58.407Z,0
2022-08-30T02:15:59.515Z,0
2022-08-30T02:18:58.630Z,0
2022-08-30T02:21:59.161Z,0
2022-08-30T02:24:59.433Z,0
2022-08-30T02:27:58.401Z,0
2022-08-30T02:30:58.873Z,0
2022-08-30T02:33:58.054Z,0
2022-08-30T02:36:59.144Z,0
2022-08-30T02:39:59.206Z,0
2022-08-30T02:42:58.396Z,0.3333333333333333
2022-08-30T02:45:59.172Z,0
2022-08-30T02:49:05.585Z,0
2022-08-30T02:51:58.804Z,0
2022-08-30T02:54:58.930Z,0
2022-08-30T02:57:59.494Z,0
2022-08-30T03:00:59.125Z,0
2022-08-30T03:03:59.361Z,0
2022-08-30T03:06:59.364Z,0
2022-08-30T03:09:58.665Z,0
2022-08-30T03:12:58.504Z,0
2022-08-30T03:15:58.686Z,0
2022-08-30T03:18:59.140Z,0
2022-08-30T03:21:59.076Z,0
2022-08-30T03:24:58.852Z,0
2022-08-30T03:27:58.870Z,0
2022-08-30T03:30:59.455Z,0
2022-08-30T03:33:59.160Z,0
2022-08-30T03:36:58.500Z,0
2022-08-30T03:39:59.462Z,0
2022-08-30T03:42:58.151Z,0
2022-08-30T03:45:59.197Z,0
2022-08-30T03:48:58.801Z,0
2022-08-30T03:51:58.136Z,0
2022-08-30T03:54:58.459Z,0
2022-08-30T03:57:59.269Z,0
2022-08-30T04:00:58.896Z,0
2022-08-30T04:03:58.794Z,0
2022-08-30T04:06:58.250Z,0
2022-08-30T04:09:59.690Z,1.3333333333333333
2022-08-30T04:12:59.495Z,1.3333333333333333
2022-08-30T04:15:58.827Z,4
2022-08-30T04:18:58.722Z,6
2022-08-30T04:21:59.635Z,9.333333333333334
2022-08-30T04:24:58.935Z,11
2022-08-30T04:27:59.131Z,13.666666666666666
2022-08-30T04:30:58.651Z,16
2022-08-30T04:33:58.533Z,19.666666666666668
2022-08-30T04:36:58.587Z,26
2022-08-30T04:39:59.497Z,33.666666666666664
2022-08-30T04:42:58.975Z,42
2022-08-30T04:45:59.393Z,50
2022-08-30T04:48:59.270Z,63
2022-08-30T04:51:58.701Z,77.66666666666667
2022-08-30T04:54:59.251Z,92.66666666666667
2022-08-30T04:57:58.947Z,105
2022-08-30T05:00:59.115Z,116
2022-08-30T05:03:59.149Z,128
2022-08-30T05:06:59.602Z,141.66666666666666
2022-08-30T05:09:58.981Z,153.33333333333334
2022-08-30T05:12:58.888Z,164.33333333333334
2022-08-30T05:15:59.998Z,174
2022-08-30T05:18:59.227Z,183.66666666666666
2022-08-30T05:21:58.715Z,193.33333333333334
2022-08-30T05:24:58.981Z,198.33333333333334
2022-08-30T05:27:58.819Z,208.33333333333334
2022-08-30T05:31:00.454Z,220.66666666666666
2022-08-30T05:33:58.804Z,233
2022-08-30T05:36:59.341Z,242.33333333333334
2022-08-30T05:39:58.987Z,251
2022-08-30T05:42:58.465Z,260.3333333333333
2022-08-30T05:45:59.558Z,266.6666666666667
2022-08-30T05:48:59.313Z,273.6666666666667
2022-08-30T05:51:59.173Z,281.6666666666667
2022-08-30T05:54:59.666Z,288
2022-08-30T05:57:59.023Z,295
2022-08-30T06:00:59.270Z,302.6666666666667
2022-08-30T06:04:03.472Z,308
2022-08-30T06:06:59.166Z,314
2022-08-30T06:09:59.193Z,320.6666666666667
2022-08-30T06:12:59.135Z,328
2022-08-30T06:15:59.206Z,334
2022-08-30T06:18:59.155Z,341
2022-08-30T06:21:59.080Z,345
2022-08-30T06:24:59.193Z,349.3333333333333
2022-08-30T06:27:59.006Z,354
2022-08-30T06:30:59.256Z,360.3333333333333
2022-08-30T06:33:58.929Z,368.6666666666667
2022-08-30T06:36:59.250Z,372.3333333333333
2022-08-30T06:39:59.224Z,375.6666666666667
2022-08-30T06:42:58.791Z,382.6666666666667
2022-08-30T06:45:59.618Z,389.6666666666667
2022-08-30T06:48:59.555Z,402
2022-08-30T06:51:59.146Z,405.6666666666667
2022-08-30T06:54:58.595Z,408
2022-08-30T06:57:58.365Z,411.6666666666667
2022-08-30T07:00:59.793Z,430.6666666666667
2022-08-30T07:03:59.354Z,441
2022-08-30T07:06:59.289Z,445
2022-08-30T07:09:59.390Z,450
2022-08-30T07:12:58.596Z,450
2022-08-30T07:15:59.511Z,454.3333333333333
2022-08-30T07:18:58.978Z,455.6666666666667
2022-08-30T07:21:58.503Z,458
2022-08-30T07:24:58.123Z,455
2022-08-30T07:27:59.061Z,435.6666666666667
2022-08-30T07:30:59.123Z,453.3333333333333
2022-08-30T07:33:59.061Z,450
2022-08-30T07:36:58.934Z,441
2022-08-30T07:39:59.036Z,441.6666666666667
2022-08-30T07:42:58.831Z,440.6666666666667
2022-08-30T07:45:59.658Z,443
2022-08-30T07:48:59.211Z,454
2022-08-30T07:51:59.612Z,453
2022-08-30T07:54:58.598Z,455
2022-08-30T07:57:58.814Z,456
2022-08-30T08:00:59.685Z,472.6666666666667
2022-08-30T08:03:59.372Z,480.3333333333333
2022-08-30T08:06:58.877Z,483.6666666666667
2022-08-30T08:09:59.473Z,492
2022-08-30T08:12:58.558Z,489.3333333333333
2022-08-30T08:15:59.087Z,490
2022-08-30T08:18:59.317Z,486.3333333333333
2022-08-30T08:22:19.474Z,483.6666666666667
2022-08-30T08:24:59.220Z,491.6666666666667
2022-08-30T08:27:58.651Z,493
2022-08-30T08:30:59.346Z,505
2022-08-30T08:36:58.519Z,525.3333333333334
2022-08-30T08:39:59.288Z,554.3333333333334
2022-08-30T08:42:58.836Z,594.6666666666666
2022-08-30T08:45:59.159Z,618
2022-08-30T08:49:00.294Z,624
2022-08-30T08:51:58.858Z,618.3333333333334
2022-08-30T08:54:59.188Z,634.6666666666666
2022-08-30T08:57:59.271Z,632
2022-08-30T09:01:00.035Z,630
2022-08-30T09:03:59.061Z,633.3333333333334
2022-08-30T09:06:59.513Z,638.6666666666666
2022-08-30T09:09:58.712Z,632.3333333333334
2022-08-30T09:13:00.190Z,659
2022-08-30T09:16:00.080Z,654.3333333333334
2022-08-30T09:18:59.111Z,679.3333333333334
2022-08-30T09:21:58.934Z,691
2022-08-30T09:24:58.973Z,669
2022-08-30T09:27:59.012Z,674.6666666666666
2022-08-30T09:30:58.969Z,681.3333333333334
2022-08-30T09:33:58.771Z,668
2022-08-30T09:36:59.331Z,646.6666666666666
2022-08-30T09:39:58.543Z,658
2022-08-30T09:42:58.578Z,674.6666666666666
2022-08-30T09:45:59.323Z,680.6666666666666
2022-08-30T09:48:58.293Z,676
2022-08-30T09:51:58.433Z,589
2022-08-30T09:54:59.152Z,657.3333333333334
2022-08-30T09:57:58.963Z,475.6666666666667
2022-08-30T10:00:59.100Z,441.6666666666667
2022-08-30T10:03:59.127Z,415.6666666666667
2022-08-30T10:06:58.208Z,566.3333333333334
2022-08-30T10:09:58.870Z,392.3333333333333
2022-08-30T10:12:59.018Z,393
2022-08-30T10:15:59.464Z,565.3333333333334
2022-08-30T10:18:59.461Z,518.3333333333334
2022-08-30T10:21:58.211Z,467.3333333333333
2022-08-30T10:24:58.728Z,496.6666666666667
2022-08-30T10:27:59.346Z,740
2022-08-30T10:30:58.652Z,609.3333333333334
2022-08-30T10:33:59.133Z,581
2022-08-30T10:36:59.337Z,571
2022-08-30T10:39:59.627Z,606
2022-08-30T10:42:58.500Z,620
2022-08-30T10:45:59.349Z,632
2022-08-30T10:48:59.567Z,631.3333333333334
2022-08-30T10:51:58.765Z,658
2022-08-30T10:54:59.357Z,804.3333333333334
2022-08-30T10:57:58.408Z,838
2022-08-30T11:00:59.229Z,841.3333333333334
2022-08-30T11:04:28.081Z,850.3333333333334
2022-08-30T11:06:59.232Z,835
2022-08-30T11:09:59.345Z,854
2022-08-30T11:12:58.860Z,843
2022-08-30T11:15:59.186Z,863.6666666666666
2022-08-30T11:18:58.717Z,889
2022-08-30T11:21:58.643Z,926
2022-08-30T11:24:59.042Z,935.6666666666666
2022-08-30T11:27:59.371Z,938
2022-08-30T11:30:59.087Z,941.3333333333334
2022-08-30T11:33:58.262Z,938.6666666666666
2022-08-30T11:36:59.340Z,941
2022-08-30T11:40:01.946Z,933
2022-08-30T11:42:58.574Z,935
2022-08-30T11:45:58.695Z,919.6666666666666
2022-08-30T11:48:58.796Z,926.6666666666666
2022-08-30T11:52:26.716Z,934.3333333333334
2022-08-30T11:54:58.467Z,930.6666666666666
2022-08-30T11:57:59.650Z,918.3333333333334
2022-08-30T12:00:59.297Z,917.6666666666666
2022-08-30T12:03:58.420Z,934
2022-08-30T12:06:59.343Z,935
2022-08-30T12:09:59.152Z,930
2022-08-30T12:12:59.283Z,933
2022-08-30T12:15:59.320Z,921
2022-08-30T12:18:59.211Z,884.6666666666666
2022-08-30T12:21:58.942Z,888
2022-08-30T12:24:59.315Z,891.6666666666666
2022-08-30T12:28:01.739Z,866.6666666666666
2022-08-30T12:30:59.367Z,849
2022-08-30T12:34:00.758Z,873
2022-08-30T12:36:58.935Z,882
2022-08-30T12:39:58.903Z,883.3333333333334
2022-08-30T12:42:59.106Z,888.3333333333334
2022-08-30T12:45:59.656Z,861.6666666666666
2022-08-30T12:48:58.763Z,838
2022-08-30T12:51:59.138Z,823.6666666666666
2022-08-30T12:54:59.031Z,800
2022-08-30T12:58:00.773Z,753.3333333333334
2022-08-30T13:01:00.318Z,727
2022-08-30T13:03:58.472Z,759
2022-08-30T13:06:58.857Z,838.6666666666666
2022-08-30T13:09:59.986Z,860.3333333333334
2022-08-30T13:12:58.654Z,869
2022-08-30T13:15:58.919Z,853.3333333333334
2022-08-30T13:18:58.790Z,783
2022-08-30T13:21:58.784Z,842.3333333333334
2022-08-30T13:24:58.316Z,845
2022-08-30T13:27:59.250Z,855
2022-08-30T13:30:59.418Z,887.3333333333334
2022-08-30T13:33:59.001Z,919.3333333333334
2022-08-30T13:36:58.548Z,919.3333333333334
2022-08-30T13:40:04.047Z,927
2022-08-30T13:42:59.059Z,927.6666666666666
2022-08-30T13:45:59.052Z,924.6666666666666
2022-08-30T13:48:58.872Z,932.3333333333334
2022-08-30T13:52:19.234Z,934
2022-08-30T13:54:58.650Z,927
2022-08-30T13:57:58.770Z,930.3333333333334
2022-08-30T14:00:59.792Z,935.3333333333334
2022-08-30T14:04:15.554Z,931
2022-08-30T14:07:19.831Z,919.6666666666666
2022-08-30T14:10:30.581Z,891.3333333333334
2022-08-30T14:13:07.803Z,842.6666666666666
2022-08-30T14:16:27.231Z,793.3333333333334
2022-08-30T14:18:59.447Z,735.3333333333334
2022-08-30T14:21:59.059Z,728.6666666666666
2022-08-30T14:24:59.611Z,764.6666666666666
2022-08-30T14:27:59.400Z,802
2022-08-30T14:30:59.977Z,844.3333333333334
2022-08-30T14:33:59.623Z,866.3333333333334
2022-08-30T14:36:59.444Z,870.6666666666666
2022-08-30T14:39:59.283Z,871.6666666666666
2022-08-30T14:42:59.626Z,857.3333333333334
2022-08-30T14:45:59.790Z,825.6666666666666
2022-08-30T14:48:59.131Z,763.6666666666666
2022-08-30T14:51:59.839Z,754.6666666666666
2022-08-30T14:55:02.430Z,759
2022-08-30T14:57:58.700Z,755
2022-08-30T15:00:59.128Z,782
2022-08-30T15:03:58.952Z,770.6666666666666
2022-08-30T15:06:58.983Z,773
2022-08-30T15:09:59.742Z,779
2022-08-30T15:12:58.820Z,785.6666666666666
2022-08-30T15:15:59.469Z,801.3333333333334
2022-08-30T15:18:59.159Z,803
2022-08-30T15:21:58.698Z,784
2022-08-30T15:24:58.648Z,735
2022-08-30T15:27:59.028Z,696
2022-08-30T15:30:59.532Z,655.6666666666666
2022-08-30T15:33:59.531Z,631
2022-08-30T15:36:59.746Z,620.3333333333334
2022-08-30T15:39:59.673Z,579.6666666666666
2022-08-30T15:42:59.057Z,538.6666666666666
2022-08-30T15:45:59.416Z,470.6666666666667
2022-08-30T15:48:59.292Z,406.3333333333333
2022-08-30T15:51:59.157Z,383.3333333333333
2022-08-30T15:54:59.891Z,369.3333333333333
2022-08-30T15:57:59.156Z,365.3333333333333
2022-08-30T16:00:59.164Z,382
2022-08-30T16:03:59.106Z,382
2022-08-30T16:06:59.270Z,383
2022-08-30T16:10:00.424Z,409
2022-08-30T16:12:59.532Z,435.6666666666667
2022-08-30T16:15:59.683Z,472
2022-08-30T16:18:58.839Z,442.6666666666667
2022-08-30T16:21:58.873Z,410.6666666666667
2022-08-30T16:24:58.951Z,401.6666666666667
2022-08-30T16:27:59.060Z,392.6666666666667
2022-08-30T16:30:59.491Z,390.3333333333333
2022-08-30T16:34:02.507Z,381
2022-08-30T16:36:58.921Z,354.3333333333333
2022-08-30T16:39:59.280Z,343.6666666666667
2022-08-30T16:42:58.579Z,348.6666666666667
2022-08-30T16:45:58.891Z,350
2022-08-30T16:48:59.368Z,340
2022-08-30T16:51:59.377Z,315
2022-08-30T16:54:59.240Z,298
2022-08-30T16:57:58.637Z,261.6666666666667
2022-08-30T17:00:59.972Z,249.66666666666666
2022-08-30T17:03:59.608Z,236
2022-08-30T17:06:59.356Z,215.66666666666666
2022-08-30T17:09:59.701Z,186.66666666666666
2022-08-30T17:12:58.736Z,163
2022-08-30T17:15:59.446Z,146
2022-08-30T17:19:00.494Z,125
2022-08-30T17:21:58.983Z,110.66666666666667
2022-08-30T17:24:59.409Z,101.33333333333333
2022-08-30T17:27:58.994Z,95.33333333333333
2022-08-30T17:30:59.642Z,88
2022-08-30T17:34:03.555Z,80.66666666666667
2022-08-30T17:36:58.847Z,73.33333333333333
2022-08-30T17:39:59.813Z,67.33333333333333
2022-08-30T17:42:58.678Z,60.666666666666664
2022-08-30T17:45:58.864Z,53.666666666666664
2022-08-30T17:49:01.241Z,45.666666666666664
2022-08-30T17:51:59.117Z,36.666666666666664
2022-08-30T17:54:58.554Z,31
2022-08-30T17:58:00.593Z,25.333333333333332
2022-08-30T18:01:25.998Z,20.666666666666668
2022-08-30T18:04:01.656Z,18
2022-08-30T18:06:58.912Z,14.666666666666666
2022-08-30T18:09:59.435Z,14.666666666666666
2022-08-30T18:12:58.912Z,11.333333333333334
2022-08-30T18:15:59.027Z,4.666666666666667
2022-08-30T18:18:59.915Z,3
2022-08-30T18:21:59.344Z,2
2022-08-30T18:25:02.251Z,0.6666666666666666
2022-08-30T18:27:59.269Z,0.3333333333333333
2022-08-30T18:30:59.206Z,0.3333333333333333
2022-08-30T18:33:59.778Z,0.6666666666666666
2022-08-30T18:36:59.458Z,0.3333333333333333
2022-08-30T18:39:59.084Z,0
2022-08-30T18:42:58.662Z,0
2022-08-30T18:45:59.262Z,0
2022-08-30T18:48:59.724Z,0
2022-08-30T18:51:58.762Z,0
2022-08-30T18:54:58.978Z,0
2022-08-30T18:57:59.577Z,0
2022-08-30T19:00:59.188Z,0
2022-08-30T19:03:59.029Z,0
2022-08-30T19:06:58.848Z,0
2022-08-30T19:09:59.125Z,0
2022-08-30T19:12:59.355Z,0
2022-08-30T19:15:59.114Z,0
2022-08-30T19:18:59.684Z,0
2022-08-30T19:21:59.243Z,0
2022-08-30T19:24:59.362Z,0
2022-08-30T19:27:58.908Z,0
2022-08-30T19:30:59.303Z,0
2022-08-30T19:33:58.792Z,0
2022-08-30T19:36:58.712Z,0
2022-08-30T19:40:00.960Z,0.3333333333333333
2022-08-30T19:42:59.839Z,0
2022-08-30T19:45:59.793Z,0
2022-08-30T19:48:58.975Z,0
2022-08-30T19:51:59.448Z,0
2022-08-30T19:54:58.977Z,0
2022-08-30T19:57:58.932Z,0
2022-08-30T20:01:11.632Z,0
2022-08-30T20:03:59.141Z,0
2022-08-30T20:06:59.304Z,0.3333333333333333
2022-08-30T20:09:59.770Z,0
2022-08-30T20:12:59.471Z,0
2022-08-30T20:15:58.567Z,0
2022-08-30T20:18:58.994Z,0
2022-08-30T20:22:04.257Z,0
2022-08-30T20:24:59.225Z,0
2022-08-30T20:27:58.506Z,0
2022-08-30T20:30:58.675Z,0
2022-08-30T20:33:58.634Z,0.3333333333333333
2022-08-30T20:36:58.890Z,0
2022-08-30T20:39:59.937Z,0
2022-08-30T20:42:59.174Z,0
2022-08-30T20:45:59.569Z,0
2022-08-30T20:48:59.138Z,0
2022-08-30T20:51:58.727Z,0
2022-08-30T20:54:58.980Z,0
2022-08-30T20:57:59.224Z,0
2022-08-30T21:00:59.074Z,0
2022-08-30T21:03:58.204Z,0
2022-08-30T21:06:59.353Z,0
2022-08-30T21:09:59.128Z,0
2022-08-30T21:12:59.358Z,0
2022-08-30T21:16:00.685Z,0
2022-08-30T21:18:58.913Z,0
2022-08-30T21:21:59.255Z,0
2022-08-30T21:24:58.995Z,0
2022-08-30T21:27:59.045Z,0
2022-08-30T21:30:59.134Z,0
2022-08-30T21:33:58.614Z,0
2022-08-30T21:36:59.084Z,0
2022-08-30T21:39:59.820Z,0
2022-08-30T21:43:02.450Z,0
2022-08-30T21:45:59.540Z,0
2022-08-30T21:48:59.026Z,0
2022-08-30T21:51:58.373Z,0
2022-08-30T21:54:59.339Z,0
2022-08-30T21:57:59.261Z,0
2022-08-30T22:00:59.069Z,0
2022-08-30T22:03:58.361Z,0
2022-08-30T22:06:59.184Z,0
2022-08-30T22:09:59.124Z,0
2022-08-30T22:12:58.675Z,0
2022-08-30T22:15:59.530Z,0
2022-08-30T22:18:58.987Z,0
2022-08-30T22:22:01.244Z,0
2022-08-30T22:24:59.094Z,0
2022-08-30T22:27:58.780Z,0
2022-08-30T22:30:58.849Z,0
2022-08-30T22:33:58.715Z,0.3333333333333333
2022-08-30T22:36:58.890Z,0.3333333333333333
2022-08-30T22:39:59.607Z,0
2022-08-30T22:42:58.554Z,0
2022-08-30T22:45:58.689Z,0
2022-08-30T22:48:59.305Z,0
2022-08-30T22:51:59.105Z,0
2022-08-30T22:54:58.442Z,0
2022-08-30T22:57:59.488Z,0
2022-08-30T23:00:59.364Z,0
2022-08-30T23:03:58.223Z,0
2022-08-30T23:07:04.703Z,0
2022-08-30T23:09:59.328Z,0
2022-08-30T23:12:58.390Z,0
2022-08-30T23:15:59.221Z,0
2022-08-30T23:18:58.482Z,0
2022-08-30T23:21:58.378Z,0
2022-08-30T23:24:58.930Z,0
2022-08-30T23:27:59.591Z,0
2022-08-30T23:30:58.866Z,0
2022-08-30T23:33:59.715Z,0
2022-08-30T23:36:59.620Z,0
2022-08-30T23:39:59.062Z,0
2022-08-30T23:42:58.871Z,0
2022-08-30T23:45:58.611Z,0
2022-08-30T23:48:59.656Z,0
2022-08-30T23:51:58.700Z,0
2022-08-30T23:54:58.641Z,0.3333333333333333
2022-08-30T23:57:58.648Z,0
